Delta, CO

5:56 PM MDT on March 28, 2017 (GMT -0600)
Garnet Mesa 2 | | Change Station

Elev 5069 ft 38.74 °N, 108.06 °W | Updated 7 seconds ago

Mostly Cloudy
Mostly Cloudy
52.3 °F
Feels Like 52.3 °F
N
11.0
Wind Variable Wind from West

Today
High -- | Low -- °F
--% Chance of Precip.
Yesterday
High -- | Low -- °F
Precip. -- in
Pressure 29.86 in
Visibility 10.0 miles
Clouds Scattered Clouds 7500 ft
Dew Point 37 °F
Humidity 58%
Rainfall 0.04 in
Snow Depth Not available.
7:02 AM 7:32 PM
New Moon, 1% visible
METAR KAJZ 282355Z AUTO 28017G27KT 10SM SCT075 11/03 A2986 RMK AO2 LTG DSNT SE T01140028 10133 20089 PWINO
Pressure 29.86 in
Visibility 10.0 miles
Clouds Scattered Clouds 7500 ft
Dew Point 37 °F
Humidity 58%
Rainfall 0.04 in
Snow Depth Not available.
7:02 AM 7:32 PM
New Moon, 1% visible
METAR KAJZ 282355Z AUTO 28017G27KT 10SM SCT075 11/03 A2986 RMK AO2 LTG DSNT SE T01140028 10133 20089 PWINO

Get Severe Weather Alerts

Thanks for signing up!

Be on the lookout for a verification email in your inbox.

You'll start receiving the daily forecast at 8 AM.

×

10-Day Weather Forecast

Almanac

Astronomy

Mar. 28, 2017 Rise Set
Actual Time
Civil Twilight
Nautical Twilight
Astronomical Twilight
Moon
Length of Visible Light
Length of Day
Tomorrow will be .
, % of the Moon is Illuminated

Today's Extremes

State Highs State Lows

Community

WunderPhotos

Upload Photos

1,962,540 photos uploaded!

WunderBlog® & News

Nearby

Air Quality

  Air Quality AQ Index Pollutant
Not available.

Snow Depth

Station Depth Elevation

Earthquake Activity

City Distance Mag. Time & Date
Minimum magnitude displayed is 2.5.

Earthquake Activity

City Distance Mag. Time & Date
Minimum magnitude displayed is 2.5.

Coastal Water Temperatures

Place Temperature

Stations

Nearby Weather Stations

Station Location Temp. Windchill Dew Point Humidity Wind Precip. Elev Updated Type
                   

Watches & Warnings

There are currently no watches in effect.